sensor_id;sensor_type;location;lat;lon;timestamp;P1;durP1;ratioP1;P2;durP2;ratioP2
68273;SDS011;55104;47.356;19.448;2024-03-17T00:00:27;11.73;;;6.20;;
68273;SDS011;55104;47.356;19.448;2024-03-17T00:03:28;20.67;;;9.32;;
68273;SDS011;55104;47.356;19.448;2024-03-17T00:06:30;25.15;;;8.60;;
68273;SDS011;55104;47.356;19.448;2024-03-17T00:09:32;23.48;;;9.55;;
68273;SDS011;55104;47.356;19.448;2024-03-17T00:12:34;15.30;;;8.30;;
68273;SDS011;55104;47.356;19.448;2024-03-17T00:15:35;20.13;;;8.73;;
68273;SDS011;55104;47.356;19.448;2024-03-17T00:18:37;20.02;;;9.65;;
68273;SDS011;55104;47.356;19.448;2024-03-17T00:21:38;18.42;;;8.73;;
68273;SDS011;55104;47.356;19.448;2024-03-17T00:24:42;32.05;;;9.65;;
68273;SDS011;55104;47.356;19.448;2024-03-17T00:27:44;17.98;;;9.35;;
68273;SDS011;55104;47.356;19.448;2024-03-17T00:30:48;27.52;;;9.85;;
68273;SDS011;55104;47.356;19.448;2024-03-17T00:33:52;15.40;;;8.43;;
68273;SDS011;55104;47.356;19.448;2024-03-17T00:36:54;16.10;;;8.15;;
68273;SDS011;55104;47.356;19.448;2024-03-17T00:39:55;15.10;;;7.25;;
68273;SDS011;55104;47.356;19.448;2024-03-17T00:42:56;14.52;;;7.07;;
68273;SDS011;55104;47.356;19.448;2024-03-17T00:45:58;18.97;;;7.87;;
68273;SDS011;55104;47.356;19.448;2024-03-17T00:48:59;18.02;;;8.00;;
68273;SDS011;55104;47.356;19.448;2024-03-17T00:52:01;15.63;;;6.88;;
68273;SDS011;55104;47.356;19.448;2024-03-17T00:55:02;16.48;;;8.23;;
68273;SDS011;55104;47.356;19.448;2024-03-17T00:58:04;14.13;;;6.77;;
68273;SDS011;55104;47.356;19.448;2024-03-17T01:01:05;16.70;;;8.07;;
68273;SDS011;55104;47.356;19.448;2024-03-17T01:04:06;19.35;;;7.22;;
68273;SDS011;55104;47.356;19.448;2024-03-17T01:07:07;14.38;;;7.32;;
68273;SDS011;55104;47.356;19.448;2024-03-17T01:10:09;17.23;;;8.60;;
68273;SDS011;55104;47.356;19.448;2024-03-17T01:13:11;20.52;;;7.50;;
68273;SDS011;55104;47.356;19.448;2024-03-17T01:16:13;13.55;;;7.05;;
68273;SDS011;55104;47.356;19.448;2024-03-17T01:19:14;16.33;;;7.13;;
68273;SDS011;55104;47.356;19.448;2024-03-17T01:22:15;13.33;;;6.07;;
68273;SDS011;55104;47.356;19.448;2024-03-17T01:25:17;12.90;;;5.55;;
68273;SDS011;55104;47.356;19.448;2024-03-17T01:28:18;14.43;;;5.50;;
68273;SDS011;55104;47.356;19.448;2024-03-17T01:31:20;9.10;;;4.38;;
68273;SDS011;55104;47.356;19.448;2024-03-17T01:34:21;9.60;;;3.97;;
68273;SDS011;55104;47.356;19.448;2024-03-17T01:37:23;8.50;;;3.35;;
68273;SDS011;55104;47.356;19.448;2024-03-17T01:40:25;7.07;;;3.42;;
68273;SDS011;55104;47.356;19.448;2024-03-17T01:43:26;6.07;;;2.73;;
68273;SDS011;55104;47.356;19.448;2024-03-17T01:46:27;4.35;;;1.08;;
68273;SDS011;55104;47.356;19.448;2024-03-17T01:49:28;3.72;;;1.38;;
68273;SDS011;55104;47.356;19.448;2024-03-17T01:52:31;3.00;;;0.88;;
68273;SDS011;55104;47.356;19.448;2024-03-17T01:55:32;2.70;;;0.90;;
68273;SDS011;55104;47.356;19.448;2024-03-17T01:58:35;2.30;;;0.65;;
68273;SDS011;55104;47.356;19.448;2024-03-17T02:01:37;2.45;;;0.60;;
68273;SDS011;55104;47.356;19.448;2024-03-17T02:04:39;2.88;;;0.80;;
68273;SDS011;55104;47.356;19.448;2024-03-17T02:07:40;1.43;;;0.57;;
68273;SDS011;55104;47.356;19.448;2024-03-17T02:10:41;4.45;;;1.15;;
68273;SDS011;55104;47.356;19.448;2024-03-17T02:13:43;2.95;;;0.60;;
68273;SDS011;55104;47.356;19.448;2024-03-17T02:16:44;3.15;;;0.93;;
68273;SDS011;55104;47.356;19.448;2024-03-17T02:19:46;2.87;;;0.97;;
68273;SDS011;55104;47.356;19.448;2024-03-17T02:22:47;3.10;;;1.02;;
68273;SDS011;55104;47.356;19.448;2024-03-17T02:25:49;3.60;;;0.60;;
68273;SDS011;55104;47.356;19.448;2024-03-17T02:28:50;3.22;;;0.98;;
68273;SDS011;55104;47.356;19.448;2024-03-17T02:31:51;1.07;;;0.40;;
68273;SDS011;55104;47.356;19.448;2024-03-17T02:34:53;0.95;;;0.28;;
68273;SDS011;55104;47.356;19.448;2024-03-17T02:37:55;4.15;;;1.00;;
68273;SDS011;55104;47.356;19.448;2024-03-17T02:40:56;1.33;;;0.63;;
68273;SDS011;55104;47.356;19.448;2024-03-17T02:43:58;2.87;;;0.67;;
68273;SDS011;55104;47.356;19.448;2024-03-17T02:46:59;2.78;;;0.70;;
68273;SDS011;55104;47.356;19.448;2024-03-17T02:50:01;4.78;;;0.95;;
68273;SDS011;55104;47.356;19.448;2024-03-17T02:53:02;2.53;;;0.90;;
68273;SDS011;55104;47.356;19.448;2024-03-17T02:56:04;2.70;;;0.93;;
68273;SDS011;55104;47.356;19.448;2024-03-17T02:59:05;1.70;;;0.57;;
68273;SDS011;55104;47.356;19.448;2024-03-17T03:02:07;2.47;;;0.77;;
68273;SDS011;55104;47.356;19.448;2024-03-17T03:05:09;3.00;;;0.95;;
68273;SDS011;55104;47.356;19.448;2024-03-17T03:08:10;1.87;;;0.50;;
68273;SDS011;55104;47.356;19.448;2024-03-17T03:11:11;2.83;;;1.02;;
68273;SDS011;55104;47.356;19.448;2024-03-17T03:14:12;1.55;;;0.60;;
68273;SDS011;55104;47.356;19.448;2024-03-17T03:17:14;1.52;;;0.60;;
68273;SDS011;55104;47.356;19.448;2024-03-17T03:20:15;3.83;;;1.20;;
68273;SDS011;55104;47.356;19.448;2024-03-17T03:23:17;2.28;;;0.95;;
68273;SDS011;55104;47.356;19.448;2024-03-17T03:26:18;4.20;;;0.65;;
68273;SDS011;55104;47.356;19.448;2024-03-17T03:29:19;2.60;;;1.05;;
68273;SDS011;55104;47.356;19.448;2024-03-17T03:32:20;3.63;;;1.07;;
68273;SDS011;55104;47.356;19.448;2024-03-17T03:35:22;3.55;;;1.17;;
68273;SDS011;55104;47.356;19.448;2024-03-17T03:38:24;2.03;;;0.65;;
68273;SDS011;55104;47.356;19.448;2024-03-17T03:41:26;2.58;;;0.50;;
68273;SDS011;55104;47.356;19.448;2024-03-17T03:44:27;2.73;;;0.90;;
68273;SDS011;55104;47.356;19.448;2024-03-17T03:47:29;4.03;;;0.88;;
68273;SDS011;55104;47.356;19.448;2024-03-17T03:50:31;2.85;;;0.93;;
68273;SDS011;55104;47.356;19.448;2024-03-17T03:53:33;1.85;;;0.63;;
68273;SDS011;55104;47.356;19.448;2024-03-17T03:56:35;2.67;;;0.70;;
68273;SDS011;55104;47.356;19.448;2024-03-17T03:59:37;2.63;;;0.90;;
68273;SDS011;55104;47.356;19.448;2024-03-17T04:02:38;3.13;;;0.82;;
68273;SDS011;55104;47.356;19.448;2024-03-17T04:05:40;3.30;;;1.20;;
68273;SDS011;55104;47.356;19.448;2024-03-17T04:08:41;1.73;;;0.53;;
68273;SDS011;55104;47.356;19.448;2024-03-17T04:11:43;2.78;;;0.55;;
68273;SDS011;55104;47.356;19.448;2024-03-17T04:14:44;2.67;;;0.80;;
68273;SDS011;55104;47.356;19.448;2024-03-17T04:17:47;3.67;;;1.42;;
68273;SDS011;55104;47.356;19.448;2024-03-17T04:20:48;2.73;;;0.80;;
68273;SDS011;55104;47.356;19.448;2024-03-17T04:23:49;3.67;;;1.23;;
68273;SDS011;55104;47.356;19.448;2024-03-17T04:26:50;3.00;;;1.08;;
68273;SDS011;55104;47.356;19.448;2024-03-17T04:29:53;2.07;;;0.60;;
68273;SDS011;55104;47.356;19.448;2024-03-17T04:32:55;2.42;;;1.00;;
68273;SDS011;55104;47.356;19.448;2024-03-17T04:35:56;4.03;;;1.15;;
68273;SDS011;55104;47.356;19.448;2024-03-17T04:38:57;2.90;;;0.95;;
68273;SDS011;55104;47.356;19.448;2024-03-17T04:41:59;3.53;;;1.33;;
68273;SDS011;55104;47.356;19.448;2024-03-17T04:45:00;2.50;;;0.70;;
68273;SDS011;55104;47.356;19.448;2024-03-17T04:48:02;1.90;;;0.70;;
68273;SDS011;55104;47.356;19.448;2024-03-17T04:51:03;3.70;;;0.60;;
68273;SDS011;55104;47.356;19.448;2024-03-17T04:54:06;2.45;;;0.75;;
68273;SDS011;55104;47.356;19.448;2024-03-17T04:57:08;2.97;;;0.68;;
68273;SDS011;55104;47.356;19.448;2024-03-17T05:00:10;2.80;;;1.05;;
68273;SDS011;55104;47.356;19.448;2024-03-17T05:03:13;3.33;;;1.25;;
68273;SDS011;55104;47.356;19.448;2024-03-17T05:06:14;2.25;;;0.68;;
68273;SDS011;55104;47.356;19.448;2024-03-17T05:09:16;3.80;;;0.73;;
68273;SDS011;55104;47.356;19.448;2024-03-17T05:12:18;1.67;;;0.53;;
68273;SDS011;55104;47.356;19.448;2024-03-17T05:15:19;2.28;;;0.63;;
68273;SDS011;55104;47.356;19.448;2024-03-17T05:18:20;2.08;;;0.70;;
68273;SDS011;55104;47.356;19.448;2024-03-17T05:21:23;2.97;;;0.60;;
68273;SDS011;55104;47.356;19.448;2024-03-17T05:24:24;4.03;;;0.80;;
68273;SDS011;55104;47.356;19.448;2024-03-17T05:27:25;1.30;;;0.50;;
68273;SDS011;55104;47.356;19.448;2024-03-17T05:30:26;2.13;;;0.77;;
68273;SDS011;55104;47.356;19.448;2024-03-17T05:33:28;3.45;;;0.88;;
68273;SDS011;55104;47.356;19.448;2024-03-17T05:36:29;2.45;;;0.82;;
68273;SDS011;55104;47.356;19.448;2024-03-17T05:39:33;3.03;;;1.05;;
68273;SDS011;55104;47.356;19.448;2024-03-17T05:42:34;2.00;;;0.70;;
68273;SDS011;55104;47.356;19.448;2024-03-17T05:45:35;1.97;;;0.67;;
68273;SDS011;55104;47.356;19.448;2024-03-17T05:48:38;1.92;;;0.45;;
68273;SDS011;55104;47.356;19.448;2024-03-17T05:51:40;2.17;;;0.65;;
68273;SDS011;55104;47.356;19.448;2024-03-17T05:54:42;3.22;;;1.30;;
68273;SDS011;55104;47.356;19.448;2024-03-17T05:57:43;3.13;;;0.98;;
68273;SDS011;55104;47.356;19.448;2024-03-17T06:00:44;3.20;;;0.95;;
68273;SDS011;55104;47.356;19.448;2024-03-17T06:03:46;1.85;;;0.43;;
68273;SDS011;55104;47.356;19.448;2024-03-17T06:06:47;1.23;;;0.40;;
68273;SDS011;55104;47.356;19.448;2024-03-17T06:09:49;1.67;;;0.65;;
68273;SDS011;55104;47.356;19.448;2024-03-17T06:12:51;3.10;;;0.80;;
68273;SDS011;55104;47.356;19.448;2024-03-17T06:15:53;2.10;;;0.50;;
68273;SDS011;55104;47.356;19.448;2024-03-17T06:18:54;2.33;;;0.80;;
68273;SDS011;55104;47.356;19.448;2024-03-17T06:21:55;2.25;;;0.73;;
68273;SDS011;55104;47.356;19.448;2024-03-17T06:24:58;2.15;;;0.80;;
68273;SDS011;55104;47.356;19.448;2024-03-17T06:28:00;1.37;;;0.50;;
68273;SDS011;55104;47.356;19.448;2024-03-17T06:31:02;2.45;;;0.57;;
68273;SDS011;55104;47.356;19.448;2024-03-17T06:34:08;2.05;;;0.75;;
68273;SDS011;55104;47.356;19.448;2024-03-17T06:37:09;2.75;;;0.93;;
68273;SDS011;55104;47.356;19.448;2024-03-17T06:40:14;1.38;;;0.45;;
68273;SDS011;55104;47.356;19.448;2024-03-17T06:43:16;2.83;;;0.63;;
68273;SDS011;55104;47.356;19.448;2024-03-17T06:46:17;2.05;;;0.68;;
68273;SDS011;55104;47.356;19.448;2024-03-17T06:49:19;1.73;;;0.50;;
68273;SDS011;55104;47.356;19.448;2024-03-17T06:52:21;2.70;;;0.77;;
68273;SDS011;55104;47.356;19.448;2024-03-17T06:55:22;1.60;;;0.60;;
68273;SDS011;55104;47.356;19.448;2024-03-17T06:58:26;2.13;;;0.67;;
68273;SDS011;55104;47.356;19.448;2024-03-17T07:01:28;2.05;;;0.55;;
68273;SDS011;55104;47.356;19.448;2024-03-17T07:04:30;3.95;;;1.23;;
68273;SDS011;55104;47.356;19.448;2024-03-17T07:07:31;2.03;;;0.60;;
68273;SDS011;55104;47.356;19.448;2024-03-17T07:10:33;3.10;;;1.13;;
68273;SDS011;55104;47.356;19.448;2024-03-17T07:13:38;6.47;;;1.10;;
68273;SDS011;55104;47.356;19.448;2024-03-17T07:16:39;13.05;;;0.50;;
68273;SDS011;55104;47.356;19.448;2024-03-17T07:19:41;2.03;;;0.80;;
68273;SDS011;55104;47.356;19.448;2024-03-17T07:22:42;3.20;;;0.80;;
68273;SDS011;55104;47.356;19.448;2024-03-17T07:25:51;1.55;;;0.70;;
68273;SDS011;55104;47.356;19.448;2024-03-17T07:28:53;2.40;;;0.63;;
68273;SDS011;55104;47.356;19.448;2024-03-17T07:31:54;3.33;;;0.80;;
68273;SDS011;55104;47.356;19.448;2024-03-17T07:34:55;4.97;;;0.85;;
68273;SDS011;55104;47.356;19.448;2024-03-17T07:37:57;1.50;;;0.55;;
68273;SDS011;55104;47.356;19.448;2024-03-17T07:41:09;3.72;;;0.77;;
68273;SDS011;55104;47.356;19.448;2024-03-17T07:44:10;2.17;;;0.50;;
68273;SDS011;55104;47.356;19.448;2024-03-17T07:47:12;2.45;;;0.80;;
68273;SDS011;55104;47.356;19.448;2024-03-17T07:50:13;1.75;;;0.32;;
68273;SDS011;55104;47.356;19.448;2024-03-17T07:53:15;2.80;;;0.83;;
68273;SDS011;55104;47.356;19.448;2024-03-17T07:56:16;1.25;;;0.35;;
68273;SDS011;55104;47.356;19.448;2024-03-17T07:59:17;2.92;;;1.05;;
68273;SDS011;55104;47.356;19.448;2024-03-17T08:02:19;3.90;;;0.85;;
68273;SDS011;55104;47.356;19.448;2024-03-17T08:05:20;2.10;;;0.73;;
68273;SDS011;55104;47.356;19.448;2024-03-17T08:08:21;0.95;;;0.45;;
68273;SDS011;55104;47.356;19.448;2024-03-17T08:11:23;2.58;;;0.80;;
68273;SDS011;55104;47.356;19.448;2024-03-17T08:14:25;2.78;;;0.57;;
68273;SDS011;55104;47.356;19.448;2024-03-17T08:17:27;2.30;;;0.50;;
68273;SDS011;55104;47.356;19.448;2024-03-17T08:20:28;1.98;;;0.60;;
68273;SDS011;55104;47.356;19.448;2024-03-17T08:23:29;3.33;;;0.95;;
68273;SDS011;55104;47.356;19.448;2024-03-17T08:26:31;1.15;;;0.28;;
68273;SDS011;55104;47.356;19.448;2024-03-17T08:29:32;2.20;;;0.70;;
68273;SDS011;55104;47.356;19.448;2024-03-17T08:32:36;1.92;;;0.65;;
68273;SDS011;55104;47.356;19.448;2024-03-17T08:35:37;3.78;;;1.08;;
68273;SDS011;55104;47.356;19.448;2024-03-17T08:38:39;1.02;;;0.40;;
68273;SDS011;55104;47.356;19.448;2024-03-17T08:41:40;1.13;;;0.47;;
68273;SDS011;55104;47.356;19.448;2024-03-17T08:44:41;1.75;;;0.68;;
68273;SDS011;55104;47.356;19.448;2024-03-17T08:47:42;2.65;;;0.68;;
68273;SDS011;55104;47.356;19.448;2024-03-17T08:50:49;2.33;;;0.50;;
68273;SDS011;55104;47.356;19.448;2024-03-17T08:53:51;4.38;;;0.60;;
68273;SDS011;55104;47.356;19.448;2024-03-17T08:56:53;1.80;;;0.43;;
68273;SDS011;55104;47.356;19.448;2024-03-17T08:59:54;3.33;;;0.75;;
68273;SDS011;55104;47.356;19.448;2024-03-17T09:02:56;12.50;;;0.65;;
68273;SDS011;55104;47.356;19.448;2024-03-17T09:05:57;0.82;;;0.30;;
68273;SDS011;55104;47.356;19.448;2024-03-17T09:08:59;8.18;;;0.88;;
68273;SDS011;55104;47.356;19.448;2024-03-17T09:12:00;1.20;;;0.38;;
68273;SDS011;55104;47.356;19.448;2024-03-17T09:15:01;1.02;;;0.50;;
68273;SDS011;55104;47.356;19.448;2024-03-17T09:18:03;0.77;;;0.28;;
68273;SDS011;55104;47.356;19.448;2024-03-17T09:21:07;1.20;;;0.23;;
68273;SDS011;55104;47.356;19.448;2024-03-17T09:24:09;1.58;;;0.50;;
68273;SDS011;55104;47.356;19.448;2024-03-17T09:27:10;0.50;;;0.20;;
68273;SDS011;55104;47.356;19.448;2024-03-17T09:30:11;1.17;;;0.30;;
68273;SDS011;55104;47.356;19.448;2024-03-17T09:33:13;5.80;;;0.70;;
68273;SDS011;55104;47.356;19.448;2024-03-17T09:36:15;2.38;;;0.50;;
68273;SDS011;55104;47.356;19.448;2024-03-17T09:39:16;1.75;;;0.50;;
68273;SDS011;55104;47.356;19.448;2024-03-17T09:42:20;1.92;;;0.70;;
68273;SDS011;55104;47.356;19.448;2024-03-17T09:45:21;1.63;;;0.50;;
68273;SDS011;55104;47.356;19.448;2024-03-17T09:48:26;5.80;;;0.60;;
68273;SDS011;55104;47.356;19.448;2024-03-17T09:51:29;1.25;;;0.40;;
68273;SDS011;55104;47.356;19.448;2024-03-17T09:54:30;2.40;;;0.73;;
68273;SDS011;55104;47.356;19.448;2024-03-17T09:57:31;0.80;;;0.30;;
68273;SDS011;55104;47.356;19.448;2024-03-17T10:00:35;2.15;;;0.55;;
68273;SDS011;55104;47.356;19.448;2024-03-17T10:03:52;2.37;;;0.60;;
68273;SDS011;55104;47.356;19.448;2024-03-17T10:06:59;1.48;;;0.32;;
68273;SDS011;55104;47.356;19.448;2024-03-17T10:10:10;9.65;;;0.98;;
68273;SDS011;55104;47.356;19.448;2024-03-17T10:13:15;4.32;;;0.60;;
68273;SDS011;55104;47.356;19.448;2024-03-17T10:16:20;1.85;;;0.60;;
68273;SDS011;55104;47.356;19.448;2024-03-17T10:19:24;2.10;;;0.50;;
68273;SDS011;55104;47.356;19.448;2024-03-17T10:22:27;2.28;;;0.70;;
68273;SDS011;55104;47.356;19.448;2024-03-17T10:25:29;4.10;;;0.90;;
68273;SDS011;55104;47.356;19.448;2024-03-17T10:28:35;4.20;;;0.60;;
68273;SDS011;55104;47.356;19.448;2024-03-17T10:31:40;1.33;;;0.30;;
68273;SDS011;55104;47.356;19.448;2024-03-17T10:34:41;5.20;;;0.70;;
68273;SDS011;55104;47.356;19.448;2024-03-17T10:37:53;0.85;;;0.25;;
68273;SDS011;55104;47.356;19.448;2024-03-17T10:40:58;1.55;;;0.40;;
68273;SDS011;55104;47.356;19.448;2024-03-17T10:43:59;1.58;;;0.50;;
68273;SDS011;55104;47.356;19.448;2024-03-17T10:47:01;3.03;;;1.00;;
68273;SDS011;55104;47.356;19.448;2024-03-17T10:50:04;4.00;;;0.45;;
68273;SDS011;55104;47.356;19.448;2024-03-17T10:53:10;4.28;;;0.43;;
68273;SDS011;55104;47.356;19.448;2024-03-17T10:56:15;0.90;;;0.40;;
68273;SDS011;55104;47.356;19.448;2024-03-17T10:59:19;2.50;;;0.60;;
68273;SDS011;55104;47.356;19.448;2024-03-17T11:02:29;1.07;;;0.40;;
68273;SDS011;55104;47.356;19.448;2024-03-17T11:05:33;2.10;;;0.60;;
68273;SDS011;55104;47.356;19.448;2024-03-17T11:08:35;1.67;;;0.47;;
68273;SDS011;55104;47.356;19.448;2024-03-17T11:11:38;0.93;;;0.38;;
68273;SDS011;55104;47.356;19.448;2024-03-17T11:14:40;1.83;;;0.40;;
68273;SDS011;55104;47.356;19.448;2024-03-17T11:17:42;1.50;;;0.40;;
68273;SDS011;55104;47.356;19.448;2024-03-17T11:20:55;1.40;;;0.43;;
68273;SDS011;55104;47.356;19.448;2024-03-17T11:24:20;3.70;;;0.68;;
68273;SDS011;55104;47.356;19.448;2024-03-17T11:27:40;1.30;;;0.30;;
68273;SDS011;55104;47.356;19.448;2024-03-17T11:33:52;2.63;;;0.70;;
68273;SDS011;55104;47.356;19.448;2024-03-17T11:36:54;0.77;;;0.20;;
68273;SDS011;55104;47.356;19.448;2024-03-17T11:39:57;1.73;;;0.40;;
68273;SDS011;55104;47.356;19.448;2024-03-17T11:43:02;2.15;;;0.40;;
68273;SDS011;55104;47.356;19.448;2024-03-17T11:46:05;1.27;;;0.38;;
68273;SDS011;55104;47.356;19.448;2024-03-17T11:52:33;3.08;;;0.77;;
68273;SDS011;55104;47.356;19.448;2024-03-17T11:55:35;2.67;;;0.65;;
68273;SDS011;55104;47.356;19.448;2024-03-17T11:58:36;1.60;;;0.52;;
68273;SDS011;55104;47.356;19.448;2024-03-17T12:01:41;1.13;;;0.35;;
68273;SDS011;55104;47.356;19.448;2024-03-17T12:04:43;0.87;;;0.30;;
68273;SDS011;55104;47.356;19.448;2024-03-17T12:07:45;1.80;;;0.52;;
68273;SDS011;55104;47.356;19.448;2024-03-17T12:10:47;1.70;;;0.47;;
68273;SDS011;55104;47.356;19.448;2024-03-17T12:13:49;1.23;;;0.43;;
68273;SDS011;55104;47.356;19.448;2024-03-17T12:16:54;1.60;;;0.50;;
68273;SDS011;55104;47.356;19.448;2024-03-17T12:19:57;1.53;;;0.40;;
68273;SDS011;55104;47.356;19.448;2024-03-17T12:22:58;5.53;;;0.70;;
68273;SDS011;55104;47.356;19.448;2024-03-17T12:26:00;2.55;;;0.60;;
68273;SDS011;55104;47.356;19.448;2024-03-17T12:29:01;0.95;;;0.32;;
68273;SDS011;55104;47.356;19.448;2024-03-17T12:32:03;2.20;;;0.60;;
68273;SDS011;55104;47.356;19.448;2024-03-17T12:35:12;2.43;;;0.43;;
68273;SDS011;55104;47.356;19.448;2024-03-17T12:38:23;2.25;;;0.50;;
68273;SDS011;55104;47.356;19.448;2024-03-17T12:41:27;1.10;;;0.40;;
68273;SDS011;55104;47.356;19.448;2024-03-17T12:44:29;3.08;;;0.60;;
68273;SDS011;55104;47.356;19.448;2024-03-17T12:47:33;4.70;;;0.55;;
68273;SDS011;55104;47.356;19.448;2024-03-17T12:50:36;5.07;;;0.90;;
68273;SDS011;55104;47.356;19.448;2024-03-17T12:53:42;2.03;;;0.30;;
68273;SDS011;55104;47.356;19.448;2024-03-17T12:56:43;1.75;;;0.45;;
68273;SDS011;55104;47.356;19.448;2024-03-17T13:00:16;1.80;;;0.45;;
68273;SDS011;55104;47.356;19.448;2024-03-17T13:03:34;1.35;;;0.40;;
68273;SDS011;55104;47.356;19.448;2024-03-17T13:06:36;1.50;;;0.40;;
68273;SDS011;55104;47.356;19.448;2024-03-17T13:09:39;1.90;;;0.60;;
68273;SDS011;55104;47.356;19.448;2024-03-17T13:12:41;6.00;;;0.60;;
68273;SDS011;55104;47.356;19.448;2024-03-17T13:15:43;2.53;;;0.52;;
68273;SDS011;55104;47.356;19.448;2024-03-17T13:18:44;5.78;;;0.75;;
68273;SDS011;55104;47.356;19.448;2024-03-17T13:21:45;2.97;;;0.60;;
68273;SDS011;55104;47.356;19.448;2024-03-17T13:24:48;1.73;;;0.50;;
68273;SDS011;55104;47.356;19.448;2024-03-17T13:27:50;1.25;;;0.30;;
68273;SDS011;55104;47.356;19.448;2024-03-17T13:30:51;1.73;;;0.45;;
68273;SDS011;55104;47.356;19.448;2024-03-17T13:33:53;1.92;;;0.38;;
68273;SDS011;55104;47.356;19.448;2024-03-17T13:36:55;1.77;;;0.60;;
68273;SDS011;55104;47.356;19.448;2024-03-17T13:39:56;1.17;;;0.30;;
68273;SDS011;55104;47.356;19.448;2024-03-17T13:42:58;0.85;;;0.30;;
68273;SDS011;55104;47.356;19.448;2024-03-17T13:45:59;0.70;;;0.22;;
68273;SDS011;55104;47.356;19.448;2024-03-17T13:49:06;1.92;;;0.57;;
68273;SDS011;55104;47.356;19.448;2024-03-17T13:52:09;2.43;;;0.53;;
68273;SDS011;55104;47.356;19.448;2024-03-17T13:55:14;4.60;;;0.85;;
68273;SDS011;55104;47.356;19.448;2024-03-17T13:58:17;0.70;;;0.30;;
68273;SDS011;55104;47.356;19.448;2024-03-17T14:01:19;2.05;;;0.40;;
68273;SDS011;55104;47.356;19.448;2024-03-17T14:04:20;1.80;;;0.50;;
68273;SDS011;55104;47.356;19.448;2024-03-17T14:07:22;4.43;;;0.83;;
68273;SDS011;55104;47.356;19.448;2024-03-17T14:10:23;1.25;;;0.40;;
68273;SDS011;55104;47.356;19.448;2024-03-17T14:13:26;2.38;;;0.52;;
68273;SDS011;55104;47.356;19.448;2024-03-17T14:16:29;4.35;;;0.70;;
68273;SDS011;55104;47.356;19.448;2024-03-17T14:19:32;2.78;;;0.60;;
68273;SDS011;55104;47.356;19.448;2024-03-17T14:22:34;1.57;;;0.40;;
68273;SDS011;55104;47.356;19.448;2024-03-17T14:25:39;1.95;;;0.50;;
68273;SDS011;55104;47.356;19.448;2024-03-17T14:28:40;1.88;;;0.45;;
68273;SDS011;55104;47.356;19.448;2024-03-17T14:31:42;1.65;;;0.47;;
68273;SDS011;55104;47.356;19.448;2024-03-17T14:34:46;2.15;;;0.50;;
68273;SDS011;55104;47.356;19.448;2024-03-17T14:37:47;2.53;;;0.30;;
68273;SDS011;55104;47.356;19.448;2024-03-17T14:40:52;1.02;;;0.30;;
68273;SDS011;55104;47.356;19.448;2024-03-17T14:43:54;1.42;;;0.32;;
68273;SDS011;55104;47.356;19.448;2024-03-17T14:46:56;2.50;;;0.40;;
68273;SDS011;55104;47.356;19.448;2024-03-17T14:49:57;2.15;;;0.40;;
68273;SDS011;55104;47.356;19.448;2024-03-17T14:52:59;2.80;;;0.70;;
68273;SDS011;55104;47.356;19.448;2024-03-17T14:56:00;2.33;;;0.43;;
68273;SDS011;55104;47.356;19.448;2024-03-17T14:59:01;1.30;;;0.30;;
68273;SDS011;55104;47.356;19.448;2024-03-17T15:02:03;7.18;;;2.97;;
68273;SDS011;55104;47.356;19.448;2024-03-17T15:05:04;3.85;;;0.93;;
68273;SDS011;55104;47.356;19.448;2024-03-17T15:08:07;5.70;;;1.23;;
68273;SDS011;55104;47.356;19.448;2024-03-17T15:11:10;6.28;;;1.75;;
68273;SDS011;55104;47.356;19.448;2024-03-17T15:14:12;2.47;;;0.60;;
68273;SDS011;55104;47.356;19.448;2024-03-17T15:17:13;2.25;;;0.50;;
68273;SDS011;55104;47.356;19.448;2024-03-17T15:20:16;1.15;;;0.40;;
68273;SDS011;55104;47.356;19.448;2024-03-17T15:23:19;3.20;;;0.63;;
68273;SDS011;55104;47.356;19.448;2024-03-17T15:26:21;1.05;;;0.32;;
68273;SDS011;55104;47.356;19.448;2024-03-17T15:29:23;1.55;;;0.70;;
68273;SDS011;55104;47.356;19.448;2024-03-17T15:32:24;5.70;;;1.10;;
68273;SDS011;55104;47.356;19.448;2024-03-17T15:35:25;1.40;;;0.40;;
68273;SDS011;55104;47.356;19.448;2024-03-17T15:38:31;2.37;;;0.63;;
68273;SDS011;55104;47.356;19.448;2024-03-17T15:41:36;2.65;;;0.68;;
68273;SDS011;55104;47.356;19.448;2024-03-17T15:44:37;2.88;;;0.55;;
68273;SDS011;55104;47.356;19.448;2024-03-17T15:47:39;3.15;;;0.50;;
68273;SDS011;55104;47.356;19.448;2024-03-17T15:50:40;1.98;;;0.52;;
68273;SDS011;55104;47.356;19.448;2024-03-17T15:53:47;2.10;;;0.57;;
68273;SDS011;55104;47.356;19.448;2024-03-17T15:56:51;4.75;;;1.45;;
68273;SDS011;55104;47.356;19.448;2024-03-17T15:59:52;1.63;;;0.45;;
68273;SDS011;55104;47.356;19.448;2024-03-17T16:02:56;3.05;;;0.60;;
68273;SDS011;55104;47.356;19.448;2024-03-17T16:05:57;3.53;;;1.50;;
68273;SDS011;55104;47.356;19.448;2024-03-17T16:09:02;3.70;;;1.05;;
68273;SDS011;55104;47.356;19.448;2024-03-17T16:12:04;4.85;;;1.20;;
68273;SDS011;55104;47.356;19.448;2024-03-17T16:15:05;2.90;;;0.75;;
68273;SDS011;55104;47.356;19.448;2024-03-17T16:18:09;3.35;;;0.55;;
68273;SDS011;55104;47.356;19.448;2024-03-17T16:24:16;4.20;;;1.10;;
68273;SDS011;55104;47.356;19.448;2024-03-17T16:27:17;4.03;;;0.95;;
68273;SDS011;55104;47.356;19.448;2024-03-17T16:30:18;3.03;;;1.08;;
68273;SDS011;55104;47.356;19.448;2024-03-17T16:33:19;2.65;;;0.75;;
68273;SDS011;55104;47.356;19.448;2024-03-17T16:36:21;3.83;;;0.90;;
68273;SDS011;55104;47.356;19.448;2024-03-17T16:39:22;1.92;;;0.55;;
68273;SDS011;55104;47.356;19.448;2024-03-17T16:42:25;5.17;;;1.57;;
68273;SDS011;55104;47.356;19.448;2024-03-17T16:45:27;2.95;;;0.60;;
68273;SDS011;55104;47.356;19.448;2024-03-17T16:48:29;2.42;;;0.85;;
68273;SDS011;55104;47.356;19.448;2024-03-17T16:51:30;2.13;;;0.93;;
68273;SDS011;55104;47.356;19.448;2024-03-17T16:54:31;2.87;;;1.03;;
68273;SDS011;55104;47.356;19.448;2024-03-17T16:57:37;3.88;;;1.08;;
68273;SDS011;55104;47.356;19.448;2024-03-17T17:00:39;1.92;;;0.60;;
68273;SDS011;55104;47.356;19.448;2024-03-17T17:03:41;5.72;;;1.60;;
68273;SDS011;55104;47.356;19.448;2024-03-17T17:06:42;4.30;;;1.40;;
68273;SDS011;55104;47.356;19.448;2024-03-17T17:09:43;3.60;;;1.35;;
68273;SDS011;55104;47.356;19.448;2024-03-17T17:12:45;7.70;;;1.40;;
68273;SDS011;55104;47.356;19.448;2024-03-17T17:15:46;5.22;;;1.92;;
68273;SDS011;55104;47.356;19.448;2024-03-17T17:18:52;5.55;;;2.72;;
68273;SDS011;55104;47.356;19.448;2024-03-17T17:21:57;6.78;;;2.75;;
68273;SDS011;55104;47.356;19.448;2024-03-17T17:25:02;7.72;;;3.17;;
68273;SDS011;55104;47.356;19.448;2024-03-17T17:28:06;8.77;;;3.85;;
68273;SDS011;55104;47.356;19.448;2024-03-17T17:31:07;11.27;;;4.77;;
68273;SDS011;55104;47.356;19.448;2024-03-17T17:34:09;6.10;;;2.17;;
68273;SDS011;55104;47.356;19.448;2024-03-17T17:37:12;7.65;;;2.17;;
68273;SDS011;55104;47.356;19.448;2024-03-17T17:40:13;8.05;;;1.98;;
68273;SDS011;55104;47.356;19.448;2024-03-17T17:43:14;7.93;;;1.60;;
68273;SDS011;55104;47.356;19.448;2024-03-17T17:46:16;6.18;;;1.25;;
68273;SDS011;55104;47.356;19.448;2024-03-17T17:49:21;4.22;;;1.30;;
68273;SDS011;55104;47.356;19.448;2024-03-17T17:52:23;4.00;;;1.23;;
68273;SDS011;55104;47.356;19.448;2024-03-17T17:55:28;3.33;;;1.10;;
68273;SDS011;55104;47.356;19.448;2024-03-17T17:58:29;6.05;;;1.30;;
68273;SDS011;55104;47.356;19.448;2024-03-17T18:01:30;6.25;;;2.08;;
68273;SDS011;55104;47.356;19.448;2024-03-17T18:04:32;3.92;;;1.42;;
68273;SDS011;55104;47.356;19.448;2024-03-17T18:07:33;4.27;;;1.57;;
68273;SDS011;55104;47.356;19.448;2024-03-17T18:19:20;10.18;;;2.83;;